Historyczne dane pomiarowe

Dodano dane terminowe – wersja testowa.

Dane z okresu 1951-2019

Wersja bazy: 1.34 [2019-03-16, lista zmian], aktualizacja planowana na 2019-04-15

Dane meteo z obszaru Polski uzyskane na podstawie danych udostępnionych przez Instytut Meteorologii i Gospodarki Wodnej – Państwowy Instytut Badawczy.

 

Wybierz Datę:    

       

TemperaturaWilgotnośćWiatrCiśnienieOpadyŚniegCzas trwania zjawisk
 Stacja t tx tn tng RH VA  wxwx mslp ppp RRR   cm mm wxwxwxwxwxwxwx
1994-08-14 13.9 18.4 11.4 9.9 69.8- 3.7 4.7---- 0.0------------
1994-08-13 16.6 22.4 14.2 13.0 82.8- 6.0 3.7---- 2.5------------
1994-08-12 16.5 20.4 14.1 12.5 88.0- 7.3 3.7---- 1.3------------
1994-08-11 17.5 20.8 14.0 12.2 91.3- 7.7 1.7---- 6.8------------
1994-08-10 19.9 25.7 14.6 13.5 75.5- 1.0 1.7---- 0.0------------
1994-08-09 18.8 23.9 15.3 14.2 92.8- 8.0 2.3---- 13.7------------
1994-08-08 21.7 27.5 18.3 17.3 74.8- 7.0 1.0---- 14.5------------
1994-08-07 23.1 30.2 18.3 14.7 60.5- 2.7 2.0---- 0.6------------
1994-08-06 23.9 32.0 13.9 10.9 53.5- 0.3 0.7---- 0.0------------
1994-08-05 23.3 31.2 15.3 12.3 64.8- 1.3 1.0---- 0.0------------
1994-08-04 23.7 30.0 17.4 14.4 68.5- 4.0 2.7---- 0.0------------
1994-08-03 23.5 30.3 16.4 14.2 61.8- 3.3 3.0---- 0.0------------
1994-08-02 24.5 32.5 16.1 13.0 56.8- 5.3 2.7---- 0.0------------
1994-08-01 26.2 34.4 16.1 13.1 55.3- 2.0 0.0---- 0.0------------
1994-07-31 26.0 34.5 15.9 13.2 52.5- 1.0 1.0---- 0.0------------
1994-07-30 26.3 34.2 15.5 12.5 46.3- 0.3 1.3---- 0.0------------
1994-07-29 25.7 34.0 16.5 11.7 46.5- 1.3 0.3---- 0.0------------
1994-07-28 24.1 33.7 14.1 11.1 58.3- 1.0 0.0---- 0.0------------
1994-07-27 24.1 33.3 14.3 11.6 52.8- 2.0 1.7---- 0.0------------
1994-07-26 24.2 32.0 13.4 10.1 53.8- 1.7 0.7---- 0.0------------
1994-07-25 22.6 31.7 11.6 8.9 60.5- 1.0 0.3---- 0.0------------
1994-07-24 21.2 30.0 12.7 8.5 62.5- 0.7 0.7---- 0.0------------
1994-07-23 21.2 28.3 11.6 8.5 64.8- 1.7 0.7---- 0.0------------
1994-07-22 20.0 26.6 11.1 8.3 57.5- 0.0 1.3---- 0.0------------
1994-07-21 19.4 26.3 9.3 6.4 64.5- 0.0 0.7---- 0.0------------
1994-07-20 18.0 23.7 10.9 8.4 62.8- 0.3 1.0---- 0.0------------
1994-07-19 17.9 23.7 13.5 11.3 74.3- 5.0 2.7---- 0.0------------
1994-07-18 20.4 24.8 17.7 16.3 84.8- 5.0 0.7---- 4.6------------
1994-07-17 22.0 27.8 17.5 16.1 76.5- 5.7 1.3---- 0.6------------
1994-07-16 22.3 30.7 11.5 8.4 63.8- 0.7 2.0---- 0.0------------
1994-07-15 21.5 28.2 13.7 10.9 66.5- 1.3 1.7---- 0.0------------
1994-07-14 21.0 29.2 14.8 12.2 71.5- 3.7 1.3---- 0.8------------
1994-07-13 21.8 29.0 11.9 9.6 63.8- 0.3 1.7---- 0.0------------
1994-07-12 21.2 27.7 15.2 12.6 69.8- 1.0 2.7---- 0.0------------
1994-07-11 18.0 23.6 12.4 10.3 79.0- 5.0 2.0---- 0.0------------
1994-07-10 16.0 23.6 12.9 11.7 82.8- 6.0 2.3---- 7.7------------
1994-07-09 14.5 17.6 12.0 8.0 83.0- 7.0 5.0---- 4.3------------
1994-07-08 17.4 22.5 15.0 14.9 68.5- 4.0 3.3---- 0.0------------
1994-07-07 20.5 27.5 12.3 9.3 58.5- 3.3 3.7---- 0.3------------
1994-07-06 18.6 25.4 9.7 6.4 58.3- 2.7 1.0---- 0.0------------
1994-07-05 19.3 26.5 11.0 8.3 63.3- 3.3 2.0---- 0.0------------
1994-07-04 19.9 27.2 9.3 6.2 62.5- 0.7 1.0---- 0.0------------
1994-07-03 18.7 26.0 8.0 4.6 65.3- 0.0 0.7---- 0.0------------
1994-07-02 17.6 23.4 9.3 6.5 63.5- 0.0 2.0---- 0.0------------
1994-07-01 18.4 22.7 12.4 8.9 61.5- 0.7 2.7---- 0.0------------
1994-06-30 20.3 27.2 15.4 12.1 85.0- 5.0 1.7---- 2.5------------
1994-06-29 23.3 30.3 14.4 11.2 68.5- 0.7 1.0---- 0.0------------
1994-06-28 23.4 28.5 17.8 13.7 68.8- 1.3 2.0---- 0.0------------
1994-06-27 24.8 31.5 16.3 6.5 58.0- 1.3 1.3---- 0.0------------
1994-06-26 19.6 28.2 6.3 3.2 62.5- 0.0 4.3---- 0.0------------
1994-06-25 15.3 21.9 6.1 1.7 60.5- 0.0 2.0---- 0.0------------
1994-06-24 13.7 19.6 7.3 2.2 51.5- 0.3 5.3---- 0.0------------
1994-06-23 17.7 21.9 15.5 12.6 46.8- 1.0 8.3---- 0.0------------
1994-06-22 18.4 26.3 8.5 5.1 61.3- 3.3 5.3---- 0.0------------
1994-06-21 14.7 20.4 6.6 3.4 65.3- 1.0 1.3---- 0.0------------
1994-06-20 16.5 21.4 10.9 8.3 64.5- 4.0 4.3---- 0.0------------
1994-06-19 16.4 22.4 11.0 9.9 76.3- 6.3 3.3---- 0.0------------
1994-06-18 11.9 18.6 3.9 0.6 68.5- 2.7 3.7---- 0.0------------
1994-06-17 10.1 14.1 8.4 7.1 75.0- 5.3 6.3---- 1.7------------
1994-06-16 11.8 16.0 6.2 3.2 70.3- 7.3 3.7---- 4.4------------
302.6 ms

 

Źródłem pochodzenia danych jest Instytut Meteorologii i Gospodarki Wodnej – Państwowy Instytut Badawczy. Dane Instytutu Meteorologii i Gospodarki Wodnej – Państwowego Instytutu Badawczego zostały przetworzone.

Dane źródłowe można odnaleźć na stronie https://dane.imgw.pl